sensor_id;sensor_type;location;lat;lon;timestamp;pressure;altitude;pressure_sealevel;temperature;humidity
77626;BME280;66794;43.764;10.436;2023-03-04T00:00:56;101831.56;;;8.28;68.97
77626;BME280;66794;43.764;10.436;2023-03-04T00:03:21;101823.31;;;7.57;71.80
77626;BME280;66794;43.764;10.436;2023-03-04T00:05:46;101821.97;;;6.99;75.19
77626;BME280;66794;43.764;10.436;2023-03-04T00:08:12;101825.47;;;7.10;75.02
77626;BME280;66794;43.764;10.436;2023-03-04T00:10:37;101825.44;;;6.78;76.91
77626;BME280;66794;43.764;10.436;2023-03-04T00:13:02;101827.84;;;6.93;76.41
77626;BME280;66794;43.764;10.436;2023-03-04T00:15:27;101829.31;;;6.97;75.93
77626;BME280;66794;43.764;10.436;2023-03-04T00:17:53;101821.53;;;6.71;77.57
77626;BME280;66794;43.764;10.436;2023-03-04T00:20:18;101833.53;;;6.56;78.52
77626;BME280;66794;43.764;10.436;2023-03-04T00:22:43;101831.69;;;6.56;78.01
77626;BME280;66794;43.764;10.436;2023-03-04T00:25:09;101837.44;;;6.18;80.43
77626;BME280;66794;43.764;10.436;2023-03-04T00:27:34;101846.63;;;6.27;80.33
77626;BME280;66794;43.764;10.436;2023-03-04T00:29:59;101843.94;;;6.27;79.88
77626;BME280;66794;43.764;10.436;2023-03-04T00:32:25;101848.13;;;6.53;79.58
77626;BME280;66794;43.764;10.436;2023-03-04T00:34:50;101841.00;;;6.41;79.61
77626;BME280;66794;43.764;10.436;2023-03-04T00:37:15;101842.25;;;6.37;80.04
77626;BME280;66794;43.764;10.436;2023-03-04T00:39:40;101841.75;;;6.54;79.43
77626;BME280;66794;43.764;10.436;2023-03-04T00:42:06;101837.59;;;6.39;80.06
77626;BME280;66794;43.764;10.436;2023-03-04T00:44:31;101846.41;;;6.52;79.72
77626;BME280;66794;43.764;10.436;2023-03-04T00:46:56;101840.63;;;6.46;80.37
77626;BME280;66794;43.764;10.436;2023-03-04T00:49:22;101842.09;;;6.50;80.18
77626;BME280;66794;43.764;10.436;2023-03-04T00:51:47;101844.19;;;6.35;80.54
77626;BME280;66794;43.764;10.436;2023-03-04T00:54:12;101849.19;;;6.28;80.64
77626;BME280;66794;43.764;10.436;2023-03-04T00:56:38;101840.41;;;6.38;80.14
77626;BME280;66794;43.764;10.436;2023-03-04T00:59:03;101830.13;;;6.43;79.86
77626;BME280;66794;43.764;10.436;2023-03-04T01:01:28;101830.63;;;6.37;80.38
77626;BME280;66794;43.764;10.436;2023-03-04T01:03:54;101824.41;;;6.36;80.37
77626;BME280;66794;43.764;10.436;2023-03-04T01:06:19;101827.81;;;6.16;81.82
77626;BME280;66794;43.764;10.436;2023-03-04T01:08:44;101820.81;;;6.24;80.78
77626;BME280;66794;43.764;10.436;2023-03-04T01:11:10;101818.63;;;6.07;81.86
77626;BME280;66794;43.764;10.436;2023-03-04T01:13:35;101820.72;;;6.03;81.99
77626;BME280;66794;43.764;10.436;2023-03-04T01:16:00;101819.72;;;5.93;82.48
77626;BME280;66794;43.764;10.436;2023-03-04T01:18:27;101822.50;;;6.03;81.85
77626;BME280;66794;43.764;10.436;2023-03-04T01:20:52;101818.41;;;5.75;83.20
77626;BME280;66794;43.764;10.436;2023-03-04T01:23:18;101818.66;;;5.37;85.56
77626;BME280;66794;43.764;10.436;2023-03-04T01:25:43;101815.25;;;5.81;83.61
77626;BME280;66794;43.764;10.436;2023-03-04T01:28:08;101813.28;;;5.72;83.80
77626;BME280;66794;43.764;10.436;2023-03-04T01:30:34;101811.81;;;5.68;84.21
77626;BME280;66794;43.764;10.436;2023-03-04T01:32:59;101814.28;;;5.82;84.62
77626;BME280;66794;43.764;10.436;2023-03-04T01:35:25;101813.78;;;5.77;84.44
77626;BME280;66794;43.764;10.436;2023-03-04T01:37:50;101816.47;;;5.77;85.02
77626;BME280;66794;43.764;10.436;2023-03-04T01:40:15;101809.31;;;5.53;86.11
77626;BME280;66794;43.764;10.436;2023-03-04T01:42:41;101810.66;;;5.48;85.45
77626;BME280;66794;43.764;10.436;2023-03-04T01:45:06;101800.84;;;5.82;84.93
77626;BME280;66794;43.764;10.436;2023-03-04T01:47:34;101803.78;;;5.90;83.93
77626;BME280;66794;43.764;10.436;2023-03-04T01:50:00;101741.28;;;5.42;83.40
77626;BME280;66794;43.764;10.436;2023-03-04T01:52:27;101802.75;;;5.58;84.89
77626;BME280;66794;43.764;10.436;2023-03-04T01:54:53;101802.38;;;5.51;84.03
77626;BME280;66794;43.764;10.436;2023-03-04T01:57:22;101727.28;;;4.79;85.96
77626;BME280;66794;43.764;10.436;2023-03-04T02:00:10;101804.34;;;5.60;84.21
77626;BME280;66794;43.764;10.436;2023-03-04T02:02:33;101798.03;;;5.37;85.00
77626;BME280;66794;43.764;10.436;2023-03-04T02:04:59;101787.34;;;5.60;84.60
77626;BME280;66794;43.764;10.436;2023-03-04T02:07:24;101789.78;;;5.51;84.71
77626;BME280;66794;43.764;10.436;2023-03-04T02:09:49;101793.94;;;5.20;85.52
77626;BME280;66794;43.764;10.436;2023-03-04T02:12:14;101785.47;;;5.49;84.27
77626;BME280;66794;43.764;10.436;2023-03-04T02:14:40;101786.28;;;5.27;85.17
77626;BME280;66794;43.764;10.436;2023-03-04T02:17:09;101786.44;;;5.01;87.05
77626;BME280;66794;43.764;10.436;2023-03-04T02:19:55;101776.56;;;5.48;85.10
77626;BME280;66794;43.764;10.436;2023-03-04T02:22:26;101778.03;;;5.41;85.01
77626;BME280;66794;43.764;10.436;2023-03-04T02:24:53;101780.13;;;5.14;86.31
77626;BME280;66794;43.764;10.436;2023-03-04T02:27:19;101779.75;;;5.07;86.64
77626;BME280;66794;43.764;10.436;2023-03-04T02:29:44;101770.03;;;5.17;86.92
77626;BME280;66794;43.764;10.436;2023-03-04T02:32:11;101775.50;;;5.16;87.17
77626;BME280;66794;43.764;10.436;2023-03-04T02:34:43;101767.69;;;5.13;86.86
77626;BME280;66794;43.764;10.436;2023-03-04T02:37:09;101780.34;;;5.11;87.29
77626;BME280;66794;43.764;10.436;2023-03-04T02:39:38;101769.28;;;4.91;87.10
77626;BME280;66794;43.764;10.436;2023-03-04T02:42:05;101760.66;;;5.23;86.27
77626;BME280;66794;43.764;10.436;2023-03-04T02:44:32;101760.91;;;5.31;86.50
77626;BME280;66794;43.764;10.436;2023-03-04T02:46:58;101761.63;;;5.22;86.17
77626;BME280;66794;43.764;10.436;2023-03-04T02:49:24;101768.34;;;5.27;84.99
77626;BME280;66794;43.764;10.436;2023-03-04T02:52:01;101767.19;;;5.08;85.98
77626;BME280;66794;43.764;10.436;2023-03-04T02:54:26;101769.69;;;4.98;85.73
77626;BME280;66794;43.764;10.436;2023-03-04T02:56:53;101765.41;;;4.95;86.53
77626;BME280;66794;43.764;10.436;2023-03-04T02:59:19;101766.28;;;4.96;87.23
77626;BME280;66794;43.764;10.436;2023-03-04T03:01:45;101774.81;;;4.77;87.21
77626;BME280;66794;43.764;10.436;2023-03-04T03:04:10;101764.53;;;4.71;86.76
77626;BME280;66794;43.764;10.436;2023-03-04T03:06:37;101768.63;;;5.00;86.36
77626;BME280;66794;43.764;10.436;2023-03-04T03:09:02;101764.56;;;4.95;86.76
77626;BME280;66794;43.764;10.436;2023-03-04T03:11:28;101772.03;;;4.79;87.64
77626;BME280;66794;43.764;10.436;2023-03-04T03:13:53;101764.63;;;4.45;88.19
77626;BME280;66794;43.764;10.436;2023-03-04T03:16:18;101762.59;;;4.49;88.63
77626;BME280;66794;43.764;10.436;2023-03-04T03:18:43;101763.47;;;4.73;88.42
77626;BME280;66794;43.764;10.436;2023-03-04T03:21:09;101766.97;;;4.63;88.63
77626;BME280;66794;43.764;10.436;2023-03-04T03:23:34;101759.56;;;4.54;87.68
77626;BME280;66794;43.764;10.436;2023-03-04T03:26:00;101766.38;;;4.46;87.58
77626;BME280;66794;43.764;10.436;2023-03-04T03:28:25;101759.38;;;4.57;89.48
77626;BME280;66794;43.764;10.436;2023-03-04T03:30:50;101759.84;;;4.62;88.39
77626;BME280;66794;43.764;10.436;2023-03-04T03:33:15;101764.47;;;4.84;87.64
77626;BME280;66794;43.764;10.436;2023-03-04T03:35:41;101762.78;;;4.83;85.45
77626;BME280;66794;43.764;10.436;2023-03-04T03:38:06;101762.47;;;4.51;87.05
77626;BME280;66794;43.764;10.436;2023-03-04T03:40:31;101763.94;;;4.18;90.31
77626;BME280;66794;43.764;10.436;2023-03-04T03:42:57;101762.41;;;4.39;91.09
77626;BME280;66794;43.764;10.436;2023-03-04T03:45:22;101768.25;;;4.57;90.92
77626;BME280;66794;43.764;10.436;2023-03-04T03:47:47;101764.59;;;4.82;89.43
77626;BME280;66794;43.764;10.436;2023-03-04T03:50:13;101767.38;;;4.20;90.54
77626;BME280;66794;43.764;10.436;2023-03-04T03:52:38;101773.19;;;4.51;89.46
77626;BME280;66794;43.764;10.436;2023-03-04T03:55:03;101760.16;;;4.33;89.27
77626;BME280;66794;43.764;10.436;2023-03-04T03:57:29;101760.84;;;4.11;90.35
77626;BME280;66794;43.764;10.436;2023-03-04T03:59:54;101769.13;;;3.95;91.41
77626;BME280;66794;43.764;10.436;2023-03-04T04:02:20;101694.03;;;3.33;92.28
77626;BME280;66794;43.764;10.436;2023-03-04T04:04:46;101764.63;;;3.58;92.82
77626;BME280;66794;43.764;10.436;2023-03-04T04:07:11;101767.22;;;3.59;94.03
77626;BME280;66794;43.764;10.436;2023-03-04T04:09:36;101761.66;;;3.75;93.97
77626;BME280;66794;43.764;10.436;2023-03-04T04:12:03;101760.69;;;3.76;94.48
77626;BME280;66794;43.764;10.436;2023-03-04T04:14:28;101771.81;;;3.95;93.69
77626;BME280;66794;43.764;10.436;2023-03-04T04:16:54;101757.97;;;4.02;91.96
77626;BME280;66794;43.764;10.436;2023-03-04T04:19:19;101763.31;;;4.14;90.61
77626;BME280;66794;43.764;10.436;2023-03-04T04:21:45;101765.81;;;4.05;92.04
77626;BME280;66794;43.764;10.436;2023-03-04T04:24:10;101760.94;;;4.22;92.03
77626;BME280;66794;43.764;10.436;2023-03-04T04:26:36;101765.16;;;4.14;90.51
77626;BME280;66794;43.764;10.436;2023-03-04T04:29:01;101765.41;;;4.35;90.76
77626;BME280;66794;43.764;10.436;2023-03-04T04:31:26;101761.50;;;4.15;88.59
77626;BME280;66794;43.764;10.436;2023-03-04T04:33:52;101774.25;;;4.24;89.88
77626;BME280;66794;43.764;10.436;2023-03-04T04:36:17;101769.09;;;4.21;89.45
77626;BME280;66794;43.764;10.436;2023-03-04T04:38:42;101776.06;;;4.23;88.74
77626;BME280;66794;43.764;10.436;2023-03-04T04:41:19;101781.00;;;4.17;89.53
77626;BME280;66794;43.764;10.436;2023-03-04T04:43:45;101780.47;;;4.12;90.29
77626;BME280;66794;43.764;10.436;2023-03-04T04:46:10;101780.59;;;4.10;89.58
77626;BME280;66794;43.764;10.436;2023-03-04T04:48:35;101779.41;;;4.02;88.36
77626;BME280;66794;43.764;10.436;2023-03-04T04:51:00;101784.78;;;3.89;88.96
77626;BME280;66794;43.764;10.436;2023-03-04T04:53:26;101782.19;;;4.13;89.43
77626;BME280;66794;43.764;10.436;2023-03-04T04:55:51;101780.25;;;4.02;88.03
77626;BME280;66794;43.764;10.436;2023-03-04T04:58:16;101777.03;;;4.22;90.15
77626;BME280;66794;43.764;10.436;2023-03-04T05:00:42;101775.97;;;4.25;88.10
77626;BME280;66794;43.764;10.436;2023-03-04T05:03:07;101769.59;;;4.39;88.40
77626;BME280;66794;43.764;10.436;2023-03-04T05:05:33;101771.59;;;4.48;87.85
77626;BME280;66794;43.764;10.436;2023-03-04T05:07:58;101774.91;;;4.15;88.28
77626;BME280;66794;43.764;10.436;2023-03-04T05:10:23;101778.88;;;4.09;88.54
77626;BME280;66794;43.764;10.436;2023-03-04T05:12:49;101774.50;;;4.08;88.79
77626;BME280;66794;43.764;10.436;2023-03-04T05:15:14;101777.72;;;3.88;88.25
77626;BME280;66794;43.764;10.436;2023-03-04T05:17:40;101779.63;;;4.11;88.84
77626;BME280;66794;43.764;10.436;2023-03-04T05:20:05;101782.22;;;3.87;89.62
77626;BME280;66794;43.764;10.436;2023-03-04T05:22:31;101774.41;;;3.72;90.43
77626;BME280;66794;43.764;10.436;2023-03-04T05:24:56;101786.19;;;3.94;90.73
77626;BME280;66794;43.764;10.436;2023-03-04T05:27:22;101775.25;;;3.72;90.58
77626;BME280;66794;43.764;10.436;2023-03-04T05:29:47;101778.59;;;3.76;91.54
77626;BME280;66794;43.764;10.436;2023-03-04T05:32:12;101792.59;;;4.05;90.90
77626;BME280;66794;43.764;10.436;2023-03-04T05:34:38;101778.97;;;4.20;88.96
77626;BME280;66794;43.764;10.436;2023-03-04T05:37:03;101778.41;;;4.65;88.39
77626;BME280;66794;43.764;10.436;2023-03-04T05:39:28;101781.16;;;4.52;87.39
77626;BME280;66794;43.764;10.436;2023-03-04T05:41:54;101781.69;;;4.44;87.34
77626;BME280;66794;43.764;10.436;2023-03-04T05:44:19;101779.25;;;4.41;87.60
77626;BME280;66794;43.764;10.436;2023-03-04T05:46:44;101773.97;;;4.53;87.10
77626;BME280;66794;43.764;10.436;2023-03-04T05:49:10;101774.28;;;4.85;87.11
77626;BME280;66794;43.764;10.436;2023-03-04T05:51:35;101777.78;;;5.09;86.21
77626;BME280;66794;43.764;10.436;2023-03-04T05:54:00;101783.97;;;4.74;86.45
77626;BME280;66794;43.764;10.436;2023-03-04T05:56:25;101786.19;;;4.57;85.79
77626;BME280;66794;43.764;10.436;2023-03-04T05:58:51;101789.81;;;4.06;88.36
77626;BME280;66794;43.764;10.436;2023-03-04T06:01:16;101785.84;;;3.99;88.04
77626;BME280;66794;43.764;10.436;2023-03-04T06:03:42;101784.13;;;3.85;89.07
77626;BME280;66794;43.764;10.436;2023-03-04T06:06:12;101783.38;;;3.96;87.85
77626;BME280;66794;43.764;10.436;2023-03-04T06:08:37;101794.31;;;3.67;89.02
77626;BME280;66794;43.764;10.436;2023-03-04T06:11:03;101791.41;;;3.58;89.15
77626;BME280;66794;43.764;10.436;2023-03-04T06:13:29;101801.59;;;3.53;89.42
77626;BME280;66794;43.764;10.436;2023-03-04T06:15:55;101791.22;;;3.61;90.92
77626;BME280;66794;43.764;10.436;2023-03-04T06:18:21;101798.91;;;3.53;90.49
77626;BME280;66794;43.764;10.436;2023-03-04T06:20:46;101804.72;;;3.72;90.15
77626;BME280;66794;43.764;10.436;2023-03-04T06:23:12;101802.91;;;3.98;90.24
77626;BME280;66794;43.764;10.436;2023-03-04T06:25:37;101802.59;;;3.64;91.06
77626;BME280;66794;43.764;10.436;2023-03-04T06:28:02;101809.47;;;3.81;90.27
77626;BME280;66794;43.764;10.436;2023-03-04T06:30:28;101809.34;;;3.83;91.18
77626;BME280;66794;43.764;10.436;2023-03-04T06:32:53;101806.03;;;3.92;91.21
77626;BME280;66794;43.764;10.436;2023-03-04T06:35:19;101810.19;;;3.96;91.83
77626;BME280;66794;43.764;10.436;2023-03-04T06:37:44;101819.53;;;4.03;92.38
77626;BME280;66794;43.764;10.436;2023-03-04T06:40:09;101826.75;;;4.39;91.11
77626;BME280;66794;43.764;10.436;2023-03-04T06:42:35;101820.47;;;4.40;91.34
77626;BME280;66794;43.764;10.436;2023-03-04T06:45:00;101823.59;;;4.71;89.86
77626;BME280;66794;43.764;10.436;2023-03-04T06:47:26;101826.41;;;4.93;88.74
77626;BME280;66794;43.764;10.436;2023-03-04T06:49:52;101829.97;;;5.18;87.48
77626;BME280;66794;43.764;10.436;2023-03-04T06:52:17;101830.28;;;5.13;87.99
77626;BME280;66794;43.764;10.436;2023-03-04T06:54:42;101834.28;;;5.08;88.80
77626;BME280;66794;43.764;10.436;2023-03-04T06:57:08;101832.94;;;5.02;89.91
77626;BME280;66794;43.764;10.436;2023-03-04T06:59:33;101827.16;;;5.19;89.43
77626;BME280;66794;43.764;10.436;2023-03-04T07:01:59;101835.38;;;5.05;89.28
77626;BME280;66794;43.764;10.436;2023-03-04T07:04:24;101834.53;;;5.28;88.83
77626;BME280;66794;43.764;10.436;2023-03-04T07:06:50;101839.31;;;5.36;88.09
77626;BME280;66794;43.764;10.436;2023-03-04T07:09:15;101841.00;;;5.37;87.78
77626;BME280;66794;43.764;10.436;2023-03-04T07:11:41;101795.13;;;5.16;88.52
77626;BME280;66794;43.764;10.436;2023-03-04T07:14:06;101842.44;;;5.65;87.23
77626;BME280;66794;43.764;10.436;2023-03-04T07:16:31;101835.41;;;5.87;85.87
77626;BME280;66794;43.764;10.436;2023-03-04T07:18:57;101839.59;;;5.91;86.22
77626;BME280;66794;43.764;10.436;2023-03-04T07:21:22;101849.41;;;6.03;85.64
77626;BME280;66794;43.764;10.436;2023-03-04T07:23:48;101853.34;;;6.10;85.40
77626;BME280;66794;43.764;10.436;2023-03-04T07:26:13;101852.59;;;6.08;86.28
77626;BME280;66794;43.764;10.436;2023-03-04T07:28:39;101849.69;;;6.33;86.01
77626;BME280;66794;43.764;10.436;2023-03-04T07:31:12;101851.03;;;6.50;85.96
77626;BME280;66794;43.764;10.436;2023-03-04T07:33:37;101846.13;;;6.55;85.73
77626;BME280;66794;43.764;10.436;2023-03-04T07:36:02;101848.59;;;6.70;85.28
77626;BME280;66794;43.764;10.436;2023-03-04T07:38:28;101856.03;;;6.77;85.05
77626;BME280;66794;43.764;10.436;2023-03-04T07:40:54;101852.72;;;6.63;86.50
77626;BME280;66794;43.764;10.436;2023-03-04T07:43:19;101860.91;;;6.83;85.86
77626;BME280;66794;43.764;10.436;2023-03-04T07:45:44;101859.56;;;6.89;84.12
77626;BME280;66794;43.764;10.436;2023-03-04T07:48:09;101858.91;;;7.08;83.67
77626;BME280;66794;43.764;10.436;2023-03-04T07:50:35;101860.44;;;7.22;82.86
77626;BME280;66794;43.764;10.436;2023-03-04T07:53:00;101861.34;;;7.43;83.58
77626;BME280;66794;43.764;10.436;2023-03-04T07:55:25;101862.59;;;7.39;84.34
77626;BME280;66794;43.764;10.436;2023-03-04T07:57:51;101866.53;;;7.67;82.69
77626;BME280;66794;43.764;10.436;2023-03-04T08:00:17;101861.13;;;7.67;81.49
77626;BME280;66794;43.764;10.436;2023-03-04T08:02:42;101861.41;;;7.85;80.46
77626;BME280;66794;43.764;10.436;2023-03-04T08:05:08;101868.97;;;8.12;78.55
77626;BME280;66794;43.764;10.436;2023-03-04T08:07:33;101870.34;;;8.27;77.55
77626;BME280;66794;43.764;10.436;2023-03-04T08:09:59;101865.34;;;8.43;76.29
77626;BME280;66794;43.764;10.436;2023-03-04T08:12:25;101865.59;;;8.71;75.02
77626;BME280;66794;43.764;10.436;2023-03-04T08:14:50;101859.78;;;8.76;74.93
77626;BME280;66794;43.764;10.436;2023-03-04T08:17:16;101864.84;;;8.69;74.93
77626;BME280;66794;43.764;10.436;2023-03-04T08:19:41;101863.50;;;8.94;74.28
77626;BME280;66794;43.764;10.436;2023-03-04T08:22:06;101858.97;;;9.04;74.46
77626;BME280;66794;43.764;10.436;2023-03-04T08:24:32;101864.28;;;9.35;71.45
77626;BME280;66794;43.764;10.436;2023-03-04T08:26:58;101858.75;;;9.46;71.10
77626;BME280;66794;43.764;10.436;2023-03-04T08:29:23;101855.03;;;9.57;70.71
77626;BME280;66794;43.764;10.436;2023-03-04T08:31:49;101853.59;;;9.72;69.66
77626;BME280;66794;43.764;10.436;2023-03-04T08:34:15;101852.59;;;9.73;68.20
77626;BME280;66794;43.764;10.436;2023-03-04T08:36:41;101846.63;;;9.69;68.53
77626;BME280;66794;43.764;10.436;2023-03-04T08:39:06;101856.59;;;9.79;69.45
77626;BME280;66794;43.764;10.436;2023-03-04T08:41:32;101854.00;;;9.96;69.82
77626;BME280;66794;43.764;10.436;2023-03-04T08:43:58;101856.81;;;10.14;70.05
77626;BME280;66794;43.764;10.436;2023-03-04T08:46:23;101855.97;;;10.23;70.13
77626;BME280;66794;43.764;10.436;2023-03-04T08:48:49;101856.50;;;10.27;70.01
77626;BME280;66794;43.764;10.436;2023-03-04T08:51:14;101861.91;;;10.37;68.94
77626;BME280;66794;43.764;10.436;2023-03-04T08:53:41;101856.44;;;10.56;68.06
77626;BME280;66794;43.764;10.436;2023-03-04T08:56:06;101855.16;;;10.50;66.38
77626;BME280;66794;43.764;10.436;2023-03-04T08:58:33;101856.03;;;10.78;66.71
77626;BME280;66794;43.764;10.436;2023-03-04T09:00:59;101853.16;;;10.80;66.66
77626;BME280;66794;43.764;10.436;2023-03-04T09:03:25;101848.50;;;10.72;67.25
77626;BME280;66794;43.764;10.436;2023-03-04T09:05:50;101849.38;;;10.91;66.64
77626;BME280;66794;43.764;10.436;2023-03-04T09:08:17;101850.84;;;10.85;65.61
77626;BME280;66794;43.764;10.436;2023-03-04T09:10:42;101849.22;;;10.92;65.43
77626;BME280;66794;43.764;10.436;2023-03-04T09:13:08;101842.28;;;11.07;65.21
77626;BME280;66794;43.764;10.436;2023-03-04T09:15:35;101843.31;;;11.24;62.46
77626;BME280;66794;43.764;10.436;2023-03-04T09:18:01;101841.00;;;11.29;64.04
77626;BME280;66794;43.764;10.436;2023-03-04T09:20:27;101844.66;;;11.20;63.56
77626;BME280;66794;43.764;10.436;2023-03-04T09:22:53;101835.59;;;11.47;63.01
77626;BME280;66794;43.764;10.436;2023-03-04T09:25:18;101838.19;;;11.57;62.24
77626;BME280;66794;43.764;10.436;2023-03-04T09:27:43;101831.63;;;11.59;61.53
77626;BME280;66794;43.764;10.436;2023-03-04T09:30:09;101833.53;;;11.67;60.24
77626;BME280;66794;43.764;10.436;2023-03-04T09:32:35;101830.72;;;11.95;63.11
77626;BME280;66794;43.764;10.436;2023-03-04T09:35:02;101837.63;;;12.07;61.05
77626;BME280;66794;43.764;10.436;2023-03-04T09:37:28;101840.47;;;12.31;59.45
77626;BME280;66794;43.764;10.436;2023-03-04T09:39:53;101835.84;;;12.24;61.42
77626;BME280;66794;43.764;10.436;2023-03-04T09:42:39;101841.28;;;12.24;60.80
77626;BME280;66794;43.764;10.436;2023-03-04T09:45:10;101843.19;;;12.66;60.15
77626;BME280;66794;43.764;10.436;2023-03-04T09:47:37;101836.66;;;12.50;61.52
77626;BME280;66794;43.764;10.436;2023-03-04T09:50:06;101834.44;;;12.46;60.45
77626;BME280;66794;43.764;10.436;2023-03-04T09:55:05;101831.16;;;12.68;59.85
77626;BME280;66794;43.764;10.436;2023-03-04T10:00:09;101832.84;;;12.77;58.48
77626;BME280;66794;43.764;10.436;2023-03-04T10:02:51;101825.78;;;12.93;58.73
77626;BME280;66794;43.764;10.436;2023-03-04T10:05:22;101826.13;;;12.89;59.27
77626;BME280;66794;43.764;10.436;2023-03-04T10:07:54;101828.38;;;13.02;58.57
77626;BME280;66794;43.764;10.436;2023-03-04T10:10:34;101821.06;;;13.03;56.82
77626;BME280;66794;43.764;10.436;2023-03-04T10:13:01;101826.16;;;13.06;56.76
77626;BME280;66794;43.764;10.436;2023-03-04T10:18:02;101817.41;;;13.45;55.43
77626;BME280;66794;43.764;10.436;2023-03-04T10:20:32;101818.94;;;13.63;52.63
77626;BME280;66794;43.764;10.436;2023-03-04T10:23:12;101812.97;;;13.84;54.20
77626;BME280;66794;43.764;10.436;2023-03-04T10:25:40;101802.59;;;13.47;51.84
77626;BME280;66794;43.764;10.436;2023-03-04T10:28:17;101805.63;;;14.01;56.15
77626;BME280;66794;43.764;10.436;2023-03-04T10:33:27;101792.19;;;14.00;49.44
77626;BME280;66794;43.764;10.436;2023-03-04T10:36:02;101793.91;;;14.56;48.38
77626;BME280;66794;43.764;10.436;2023-03-04T10:38:28;101802.56;;;14.68;48.94
77626;BME280;66794;43.764;10.436;2023-03-04T10:40:55;101793.28;;;14.30;48.87
77626;BME280;66794;43.764;10.436;2023-03-04T10:43:21;101795.50;;;14.34;48.12
77626;BME280;66794;43.764;10.436;2023-03-04T10:45:47;101791.41;;;14.38;48.37
77626;BME280;66794;43.764;10.436;2023-03-04T10:48:20;101785.50;;;14.18;51.12
77626;BME280;66794;43.764;10.436;2023-03-04T10:50:46;101727.25;;;13.72;51.56
77626;BME280;66794;43.764;10.436;2023-03-04T10:53:38;101788.13;;;14.59;49.45
77626;BME280;66794;43.764;10.436;2023-03-04T10:55:57;101782.59;;;14.76;50.45
77626;BME280;66794;43.764;10.436;2023-03-04T10:58:23;101779.75;;;14.61;47.67
77626;BME280;66794;43.764;10.436;2023-03-04T11:01:02;101778.31;;;14.73;47.17
77626;BME280;66794;43.764;10.436;2023-03-04T11:03:29;101769.06;;;14.82;45.78
77626;BME280;66794;43.764;10.436;2023-03-04T11:06:06;101767.06;;;14.76;45.34
77626;BME280;66794;43.764;10.436;2023-03-04T11:08:32;101771.53;;;14.69;46.30
77626;BME280;66794;43.764;10.436;2023-03-04T11:10:57;101767.09;;;14.99;48.01
77626;BME280;66794;43.764;10.436;2023-03-04T11:13:23;101758.38;;;15.26;46.02
77626;BME280;66794;43.764;10.436;2023-03-04T11:18:18;101755.22;;;14.92;44.00
77626;BME280;66794;43.764;10.436;2023-03-04T11:20:45;101752.28;;;14.93;42.53
77626;BME280;66794;43.764;10.436;2023-03-04T11:25:46;101753.13;;;14.71;44.67
77626;BME280;66794;43.764;10.436;2023-03-04T11:28:23;101744.06;;;15.02;43.98
77626;BME280;66794;43.764;10.436;2023-03-04T11:30:57;101740.19;;;15.19;43.23
77626;BME280;66794;43.764;10.436;2023-03-04T11:33:28;101688.28;;;14.81;44.46
77626;BME280;66794;43.764;10.436;2023-03-04T11:38:28;101732.63;;;15.44;43.00
77626;BME280;66794;43.764;10.436;2023-03-04T11:41:38;101723.50;;;15.74;44.22
77626;BME280;66794;43.764;10.436;2023-03-04T11:43:45;101726.44;;;15.88;42.62
77626;BME280;66794;43.764;10.436;2023-03-04T11:51:27;101705.69;;;15.64;44.21
77626;BME280;66794;43.764;10.436;2023-03-04T11:54:12;101713.63;;;16.03;42.91
77626;BME280;66794;43.764;10.436;2023-03-04T11:56:44;101706.09;;;15.90;42.84
77626;BME280;66794;43.764;10.436;2023-03-04T12:01:41;101701.00;;;15.72;41.82
77626;BME280;66794;43.764;10.436;2023-03-04T12:07:00;101640.88;;;16.17;42.19
77626;BME280;66794;43.764;10.436;2023-03-04T12:09:34;101688.94;;;15.96;42.20
77626;BME280;66794;43.764;10.436;2023-03-04T12:20:07;101669.31;;;16.22;40.83
77626;BME280;66794;43.764;10.436;2023-03-04T12:22:38;101662.44;;;16.26;41.91
77626;BME280;66794;43.764;10.436;2023-03-04T12:30:33;101660.97;;;15.80;41.00
77626;BME280;66794;43.764;10.436;2023-03-04T12:35:30;101642.41;;;16.77;43.14
77626;BME280;66794;43.764;10.436;2023-03-04T12:40:26;101643.09;;;15.77;43.82
77626;BME280;66794;43.764;10.436;2023-03-04T12:43:00;101634.69;;;15.93;45.24
77626;BME280;66794;43.764;10.436;2023-03-04T12:50:36;101618.59;;;16.56;42.33
77626;BME280;66794;43.764;10.436;2023-03-04T12:55:49;101616.16;;;16.25;43.28
77626;BME280;66794;43.764;10.436;2023-03-04T12:58:20;101620.44;;;15.98;43.62
77626;BME280;66794;43.764;10.436;2023-03-04T13:06:08;101601.72;;;16.52;41.40
77626;BME280;66794;43.764;10.436;2023-03-04T13:19:03;101589.94;;;16.52;40.97
77626;BME280;66794;43.764;10.436;2023-03-04T13:21:48;101583.38;;;16.68;40.27
77626;BME280;66794;43.764;10.436;2023-03-04T13:27:42;101589.44;;;16.06;39.90
77626;BME280;66794;43.764;10.436;2023-03-04T13:29:47;101578.56;;;16.70;43.17
77626;BME280;66794;43.764;10.436;2023-03-04T13:32:13;101584.97;;;16.19;41.39
77626;BME280;66794;43.764;10.436;2023-03-04T13:34:58;101578.84;;;16.53;41.90
77626;BME280;66794;43.764;10.436;2023-03-04T13:37:28;101571.66;;;16.31;40.69
77626;BME280;66794;43.764;10.436;2023-03-04T13:42:41;101574.47;;;17.37;37.73
77626;BME280;66794;43.764;10.436;2023-03-04T13:47:51;101585.91;;;15.90;41.30
77626;BME280;66794;43.764;10.436;2023-03-04T13:50:25;101533.63;;;15.93;40.22
77626;BME280;66794;43.764;10.436;2023-03-04T13:53:19;101572.00;;;16.86;41.27
77626;BME280;66794;43.764;10.436;2023-03-04T13:55:39;101576.34;;;16.37;39.96
77626;BME280;66794;43.764;10.436;2023-03-04T13:58:14;101573.75;;;16.50;39.57
77626;BME280;66794;43.764;10.436;2023-03-04T14:00:46;101563.72;;;16.79;40.69
77626;BME280;66794;43.764;10.436;2023-03-04T14:03:19;101562.53;;;17.16;39.58
77626;BME280;66794;43.764;10.436;2023-03-04T14:05:45;101570.16;;;16.50;40.89